createdAt,value
2019-03-03T00:02:37.376Z,10.02
2019-03-03T00:05:40.590Z,10.04
2019-03-03T00:08:43.774Z,10.00
2019-03-03T00:11:46.979Z,9.99
2019-03-03T00:14:50.169Z,10.00
2019-03-03T00:17:53.446Z,10.03
2019-03-03T00:20:56.642Z,9.98
2019-03-03T00:23:59.736Z,10.00
2019-03-03T00:27:02.850Z,10.06
2019-03-03T00:30:06.309Z,10.03
2019-03-03T00:33:09.427Z,10.03
2019-03-03T00:36:12.626Z,10.05
2019-03-03T00:39:20.943Z,9.98
2019-03-03T00:42:29.153Z,10.00
2019-03-03T00:45:39.363Z,9.97
2019-03-03T00:48:46.663Z,9.97
2019-03-03T00:51:55.395Z,9.94
2019-03-03T00:55:03.721Z,10.00
2019-03-03T00:58:13.855Z,9.95
2019-03-03T01:01:21.176Z,9.91
2019-03-03T01:04:35.559Z,9.95
2019-03-03T01:07:51.918Z,9.89
2019-03-03T01:11:00.329Z,9.93
2019-03-03T01:14:08.823Z,9.90
2019-03-03T01:17:21.195Z,9.90
2019-03-03T01:20:28.543Z,9.88
2019-03-03T01:23:37.132Z,9.93
2019-03-03T01:26:40.286Z,9.93
2019-03-03T01:29:43.489Z,9.90
2019-03-03T01:32:46.595Z,9.87
2019-03-03T01:35:49.768Z,9.98
2019-03-03T01:38:52.867Z,9.88
2019-03-03T01:41:55.963Z,9.89
2019-03-03T01:44:59.156Z,9.90
2019-03-03T01:48:02.343Z,9.92
2019-03-03T01:51:05.437Z,9.90
2019-03-03T01:54:08.538Z,9.91
2019-03-03T01:57:11.728Z,9.89
2019-03-03T02:00:25.007Z,9.90
2019-03-03T02:03:28.155Z,9.94
2019-03-03T02:06:31.352Z,9.92
2019-03-03T02:09:34.551Z,9.89
2019-03-03T02:12:37.734Z,9.89
2019-03-03T02:15:40.935Z,9.88
2019-03-03T02:18:44.031Z,9.87
2019-03-03T02:21:47.220Z,9.90
2019-03-03T02:24:50.620Z,9.84
2019-03-03T02:27:53.794Z,9.84
2019-03-03T02:30:56.895Z,9.84
2019-03-03T02:33:59.983Z,9.80
2019-03-03T02:37:03.072Z,9.81
2019-03-03T02:40:07.309Z,9.80
2019-03-03T02:43:10.394Z,9.78
2019-03-03T02:46:13.594Z,9.82
2019-03-03T02:49:16.775Z,9.77
2019-03-03T02:52:19.872Z,9.80
2019-03-03T02:55:22.989Z,9.79
2019-03-03T02:58:26.288Z,9.74
2019-03-03T03:01:33.823Z,9.77
2019-03-03T03:04:36.960Z,9.74
2019-03-03T03:07:46.184Z,9.71
2019-03-03T03:10:56.459Z,9.70
2019-03-03T03:14:08.879Z,9.68
2019-03-03T03:17:16.226Z,9.66
2019-03-03T03:20:24.370Z,9.65
2019-03-03T03:23:38.816Z,9.64
2019-03-03T03:27:45.403Z,9.62
2019-03-03T03:30:56.685Z,9.63
2019-03-03T03:34:05.227Z,9.67
2019-03-03T03:37:27.885Z,9.66
2019-03-03T03:40:35.225Z,9.74
2019-03-03T03:44:17.843Z,9.79
2019-03-03T03:47:26.142Z,9.72
2019-03-03T03:50:34.419Z,9.71
2019-03-03T03:53:42.972Z,9.68
2019-03-03T03:56:51.246Z,9.73
2019-03-03T04:00:04.680Z,9.79
2019-03-03T04:03:13.210Z,9.79
2019-03-03T04:06:22.356Z,9.77
2019-03-03T04:09:37.592Z,9.79
2019-03-03T04:12:48.887Z,9.77
2019-03-03T04:15:56.255Z,9.76
2019-03-03T04:19:05.536Z,9.79
2019-03-03T04:23:12.985Z,9.82
2019-03-03T04:26:30.299Z,9.77
2019-03-03T04:29:37.686Z,9.76
2019-03-03T04:32:47.787Z,9.82
2019-03-03T04:35:56.431Z,9.79
2019-03-03T04:39:05.065Z,9.75
2019-03-03T04:42:13.665Z,9.75
2019-03-03T04:45:24.023Z,9.76
2019-03-03T04:48:32.365Z,9.74
2019-03-03T04:51:44.806Z,9.80
2019-03-03T04:54:54.063Z,9.78
2019-03-03T04:58:04.342Z,9.82
2019-03-03T05:03:16.214Z,9.80
2019-03-03T05:06:23.494Z,9.77
2019-03-03T05:09:31.867Z,9.80
2019-03-03T05:12:40.561Z,9.80
2019-03-03T05:15:51.880Z,9.89
2019-03-03T05:18:59.939Z,9.84
2019-03-03T05:22:03.058Z,9.82
2019-03-03T05:25:06.367Z,9.84
2019-03-03T05:28:09.443Z,9.89
2019-03-03T05:31:12.634Z,9.91
2019-03-03T05:34:15.716Z,9.93
2019-03-03T05:37:18.824Z,9.92
2019-03-03T05:40:22.012Z,9.91
2019-03-03T05:43:25.104Z,9.90
2019-03-03T05:46:28.235Z,9.92
2019-03-03T05:49:31.392Z,9.95
2019-03-03T05:52:34.501Z,9.94
2019-03-03T05:55:37.679Z,9.89
2019-03-03T05:58:40.767Z,9.91
2019-03-03T06:01:43.962Z,9.85
2019-03-03T06:04:47.055Z,9.87
2019-03-03T06:07:50.147Z,9.86
2019-03-03T06:10:53.278Z,9.84
2019-03-03T06:13:56.336Z,9.90
2019-03-03T06:16:59.423Z,9.90
2019-03-03T06:20:03.090Z,9.94
2019-03-03T06:23:06.227Z,9.92
2019-03-03T06:26:09.419Z,9.97
2019-03-03T06:29:12.611Z,9.95
2019-03-03T06:32:15.700Z,9.95
2019-03-03T06:35:18.803Z,10.00
2019-03-03T06:38:21.990Z,9.99
2019-03-03T06:41:25.089Z,10.06
2019-03-03T06:44:28.184Z,10.06
2019-03-03T06:47:31.371Z,10.03
2019-03-03T06:50:34.571Z,10.03
2019-03-03T06:53:38.031Z,10.08
2019-03-03T06:56:41.175Z,10.15
2019-03-03T06:59:44.375Z,10.15
2019-03-03T07:02:47.559Z,10.13
2019-03-03T07:05:50.640Z,10.16
2019-03-03T07:08:53.821Z,10.16
2019-03-03T07:11:56.931Z,10.18
2019-03-03T07:15:00.182Z,10.17
2019-03-03T07:18:03.329Z,10.20
2019-03-03T07:21:06.496Z,10.23
2019-03-03T07:24:09.712Z,10.20
2019-03-03T07:27:12.892Z,10.23
2019-03-03T07:30:16.108Z,10.22
2019-03-03T07:33:29.198Z,10.24
2019-03-03T07:36:32.314Z,10.25
2019-03-03T07:39:35.503Z,10.32
2019-03-03T07:42:38.600Z,10.39
2019-03-03T07:45:41.790Z,10.42
2019-03-03T07:48:45.123Z,10.48
2019-03-03T07:51:48.390Z,10.49
2019-03-03T07:54:51.923Z,10.56
2019-03-03T07:57:55.024Z,10.61
2019-03-03T08:00:58.167Z,10.68
2019-03-03T08:04:01.281Z,10.76
2019-03-03T08:07:04.471Z,10.77
2019-03-03T08:10:08.082Z,10.83
2019-03-03T08:13:11.267Z,10.88
2019-03-03T08:16:14.482Z,10.91
2019-03-03T08:19:17.652Z,10.93
2019-03-03T08:22:20.744Z,10.97
2019-03-03T08:25:23.936Z,11.01
2019-03-03T08:28:27.139Z,10.98
2019-03-03T08:31:30.323Z,10.99
2019-03-03T08:34:33.527Z,10.98
2019-03-03T08:37:36.724Z,11.02
2019-03-03T08:40:39.915Z,11.00
2019-03-03T08:43:47.781Z,10.97
2019-03-03T08:46:56.351Z,10.96
2019-03-03T08:50:05.724Z,10.95
2019-03-03T08:53:24.177Z,10.95
2019-03-03T08:56:35.519Z,11.01
2019-03-03T08:59:46.779Z,11.03
2019-03-03T09:03:25.655Z,10.99
2019-03-03T09:06:35.987Z,11.01
2019-03-03T09:09:54.475Z,11.03
2019-03-03T09:13:03.676Z,11.09
2019-03-03T09:16:11.823Z,11.13
2019-03-03T09:19:20.328Z,11.16
2019-03-03T09:22:27.779Z,11.19
2019-03-03T09:25:54.201Z,11.19
2019-03-03T09:29:01.597Z,11.26
2019-03-03T09:32:29.175Z,11.25
2019-03-03T09:35:51.612Z,11.24
2019-03-03T09:39:00.061Z,11.27
2019-03-03T09:42:08.711Z,11.33
2019-03-03T09:45:17.027Z,11.30
2019-03-03T09:49:24.380Z,11.28
2019-03-03T09:52:38.722Z,11.35
2019-03-03T09:55:50.975Z,11.33
2019-03-03T09:58:59.523Z,11.35
2019-03-03T10:02:25.023Z,11.30
2019-03-03T10:05:49.488Z,11.27
2019-03-03T10:08:56.869Z,11.31
2019-03-03T10:12:06.167Z,11.31
2019-03-03T10:15:16.687Z,11.37
2019-03-03T10:18:24.957Z,11.36
2019-03-03T10:21:50.403Z,11.39
2019-03-03T10:27:01.599Z,11.38
2019-03-03T10:30:12.015Z,11.40
2019-03-03T10:33:20.690Z,11.39
2019-03-03T10:36:33.189Z,11.45
2019-03-03T10:39:42.498Z,11.44
2019-03-03T10:42:49.828Z,11.43
2019-03-03T10:45:58.130Z,11.39
2019-03-03T10:51:14.667Z,11.47
2019-03-03T10:55:27.779Z,11.46
2019-03-03T10:58:35.924Z,11.43
2019-03-03T11:01:58.472Z,11.44
2019-03-03T11:05:08.925Z,11.46
2019-03-03T11:08:49.572Z,11.47
2019-03-03T11:11:57.704Z,11.46
2019-03-03T11:15:06.274Z,11.44
2019-03-03T11:18:14.574Z,11.43
2019-03-03T11:21:23.119Z,11.43
2019-03-03T11:24:46.755Z,11.42
2019-03-03T11:27:54.098Z,11.43
2019-03-03T11:31:09.346Z,11.47
2019-03-03T11:35:16.436Z,11.48
2019-03-03T11:38:29.722Z,11.55
2019-03-03T11:41:43.103Z,11.54
2019-03-03T11:44:52.336Z,11.60
2019-03-03T11:48:04.243Z,11.62
2019-03-03T11:51:08.390Z,11.63
2019-03-03T11:54:19.732Z,11.67
2019-03-03T11:58:29.362Z,11.70
2019-03-03T12:02:09.071Z,11.68
2019-03-03T12:05:17.810Z,11.65
2019-03-03T12:08:29.116Z,11.69
2019-03-03T12:11:56.450Z,11.68
2019-03-03T12:15:21.767Z,11.77
2019-03-03T12:18:29.916Z,11.86
2019-03-03T12:21:39.070Z,12.02
2019-03-03T12:24:49.403Z,12.16
2019-03-03T12:27:59.699Z,12.21
2019-03-03T12:31:11.073Z,12.09
2019-03-03T12:34:24.498Z,12.08
2019-03-03T12:37:33.080Z,12.04
2019-03-03T12:42:48.382Z,12.03
2019-03-03T12:46:28.034Z,12.08
2019-03-03T12:49:36.271Z,12.10
2019-03-03T12:53:15.075Z,12.15
2019-03-03T12:56:24.457Z,12.20
2019-03-03T12:59:31.791Z,12.22
2019-03-03T13:02:39.080Z,12.18
2019-03-03T13:05:46.375Z,12.23
2019-03-03T13:09:30.104Z,12.20
2019-03-03T13:12:38.420Z,12.24
2019-03-03T13:15:45.734Z,12.20
2019-03-03T13:18:53.110Z,12.18
2019-03-03T13:22:04.477Z,12.18
2019-03-03T13:25:14.787Z,12.21
2019-03-03T13:28:26.071Z,12.16
2019-03-03T13:31:36.365Z,12.18
2019-03-03T13:34:49.825Z,12.25
2019-03-03T13:37:57.932Z,12.28
2019-03-03T13:41:07.041Z,12.34
2019-03-03T13:44:10.244Z,12.37
2019-03-03T13:47:13.418Z,12.39
2019-03-03T13:50:16.711Z,12.39
2019-03-03T13:53:19.896Z,12.37
2019-03-03T13:56:23.118Z,12.40
2019-03-03T13:59:26.324Z,12.47
2019-03-03T14:02:29.472Z,12.52
2019-03-03T14:05:32.668Z,12.47
2019-03-03T14:08:35.860Z,12.53
2019-03-03T14:11:38.960Z,12.55
2019-03-03T14:14:42.159Z,12.53
2019-03-03T14:17:45.516Z,12.58
2019-03-03T14:20:48.657Z,12.65
2019-03-03T14:23:52.111Z,12.64
2019-03-03T14:26:55.413Z,12.69
2019-03-03T14:29:58.596Z,12.77
2019-03-03T14:33:01.746Z,12.84
2019-03-03T14:36:05.079Z,12.92
2019-03-03T14:39:08.727Z,12.92
2019-03-03T14:42:11.956Z,12.84
2019-03-03T14:45:16.262Z,12.90
2019-03-03T14:48:20.196Z,12.94
2019-03-03T14:51:23.596Z,12.96
2019-03-03T14:54:26.857Z,12.92
2019-03-03T14:57:30.071Z,12.86
2019-03-03T15:00:33.307Z,12.87
2019-03-03T15:03:36.464Z,12.94
2019-03-03T15:06:39.660Z,12.92
2019-03-03T15:09:42.940Z,12.93
2019-03-03T15:12:46.215Z,12.91
2019-03-03T15:15:49.362Z,12.93
2019-03-03T15:18:52.675Z,12.98
2019-03-03T15:21:56.678Z,12.93
2019-03-03T15:24:59.859Z,12.95
2019-03-03T15:28:03.185Z,12.92
2019-03-03T15:31:06.370Z,12.94
2019-03-03T15:34:09.925Z,12.88
2019-03-03T15:37:16.827Z,12.84
2019-03-03T15:40:20.324Z,12.85
2019-03-03T15:43:23.532Z,12.81
2019-03-03T15:46:26.695Z,12.82
2019-03-03T15:49:29.808Z,12.83
2019-03-03T15:52:32.996Z,12.78
2019-03-03T15:55:36.185Z,12.77
2019-03-03T15:58:39.355Z,12.80
2019-03-03T16:01:42.552Z,12.84
2019-03-03T16:04:45.755Z,12.83
2019-03-03T16:07:48.871Z,12.84
2019-03-03T16:10:52.190Z,12.87
2019-03-03T16:13:55.342Z,12.81
2019-03-03T16:16:58.531Z,12.77
2019-03-03T16:20:01.733Z,12.78
2019-03-03T16:23:04.918Z,12.72
2019-03-03T16:26:08.019Z,12.74
2019-03-03T16:29:11.211Z,12.81
2019-03-03T16:32:14.425Z,12.71
2019-03-03T16:35:17.623Z,12.75
2019-03-03T16:38:20.918Z,12.71
2019-03-03T16:41:23.984Z,12.71
2019-03-03T16:44:27.307Z,12.71
2019-03-03T16:47:30.495Z,12.70
2019-03-03T16:50:33.779Z,12.70
2019-03-03T16:53:36.967Z,12.63
2019-03-03T16:56:40.309Z,12.64
2019-03-03T16:59:43.467Z,12.70
2019-03-03T17:02:46.659Z,12.69
2019-03-03T17:05:49.858Z,12.62
2019-03-03T17:08:53.051Z,12.64
2019-03-03T17:11:56.135Z,12.63
2019-03-03T17:14:59.276Z,12.62
2019-03-03T17:18:02.458Z,12.65
2019-03-03T17:21:05.625Z,12.66
2019-03-03T17:24:08.807Z,12.63
2019-03-03T17:27:12.019Z,12.64
2019-03-03T17:30:17.769Z,12.66
2019-03-03T17:33:20.954Z,12.61
2019-03-03T17:36:24.139Z,12.58
2019-03-03T17:39:27.336Z,12.64
2019-03-03T17:42:30.462Z,12.59
2019-03-03T17:45:33.675Z,12.59
2019-03-03T17:48:36.839Z,12.59
2019-03-03T17:51:40.474Z,12.55
2019-03-03T17:54:47.280Z,12.53
2019-03-03T17:57:50.395Z,12.57
2019-03-03T18:00:53.492Z,12.61
2019-03-03T18:03:56.607Z,12.60
2019-03-03T18:07:00.311Z,12.60
2019-03-03T18:10:03.968Z,12.59
2019-03-03T18:13:07.107Z,12.53
2019-03-03T18:16:10.303Z,12.51
2019-03-03T18:19:13.525Z,12.48
2019-03-03T18:22:16.591Z,12.47
2019-03-03T18:25:19.779Z,12.42
2019-03-03T18:28:22.974Z,12.41
2019-03-03T18:31:26.051Z,12.38
2019-03-03T18:34:29.147Z,12.37
2019-03-03T18:37:32.344Z,12.38
2019-03-03T18:40:35.535Z,12.40
2019-03-03T18:43:38.774Z,12.35
2019-03-03T18:46:42.014Z,12.30
2019-03-03T18:49:45.124Z,12.28
2019-03-03T18:52:48.335Z,12.25
2019-03-03T18:55:51.531Z,12.24
2019-03-03T18:58:54.704Z,12.23
2019-03-03T19:01:57.805Z,12.24
2019-03-03T19:05:00.903Z,12.27
2019-03-03T19:08:04.005Z,12.23
2019-03-03T19:11:07.175Z,12.21
2019-03-03T19:14:10.264Z,12.28
2019-03-03T19:17:14.764Z,12.34
2019-03-03T19:20:18.702Z,12.35
2019-03-03T19:23:21.928Z,12.28
2019-03-03T19:26:25.096Z,12.25
2019-03-03T19:29:28.316Z,12.25
2019-03-03T19:32:33.351Z,12.22
2019-03-03T19:35:36.431Z,12.20
2019-03-03T19:38:39.607Z,12.17
2019-03-03T19:41:42.745Z,12.10
2019-03-03T19:44:45.907Z,12.05
2019-03-03T19:47:49.187Z,12.08
2019-03-03T19:50:52.288Z,12.12
2019-03-03T19:53:55.492Z,12.20
2019-03-03T19:56:58.718Z,12.20
2019-03-03T20:00:01.895Z,12.19
2019-03-03T20:03:05.181Z,12.22
2019-03-03T20:06:08.264Z,12.29
2019-03-03T20:09:16.836Z,12.32
2019-03-03T20:12:19.972Z,12.33
2019-03-03T20:15:23.063Z,12.42
2019-03-03T20:18:26.305Z,12.44
2019-03-03T20:21:29.479Z,12.48
2019-03-03T20:24:32.671Z,12.46
2019-03-03T20:27:35.791Z,12.54
2019-03-03T20:30:38.961Z,12.58
2019-03-03T20:33:42.047Z,12.47
2019-03-03T20:36:45.239Z,12.53
2019-03-03T20:39:48.427Z,12.55
2019-03-03T20:42:51.759Z,12.60
2019-03-03T20:45:55.023Z,12.57
2019-03-03T20:48:58.214Z,12.57
2019-03-03T20:52:01.308Z,12.58
2019-03-03T20:55:05.243Z,12.61
2019-03-03T20:58:08.431Z,12.60
2019-03-03T21:01:11.622Z,12.64
2019-03-03T21:04:14.844Z,12.66
2019-03-03T21:07:17.989Z,12.63
2019-03-03T21:10:21.814Z,12.65
2019-03-03T21:13:25.035Z,12.59
2019-03-03T21:16:28.211Z,12.52
2019-03-03T21:19:31.378Z,12.49
2019-03-03T21:22:34.471Z,12.59
2019-03-03T21:25:37.587Z,12.54
2019-03-03T21:28:40.759Z,12.49
2019-03-03T21:31:44.059Z,12.48
2019-03-03T21:34:47.154Z,12.52
2019-03-03T21:37:50.455Z,12.47
2019-03-03T21:40:53.712Z,12.48
2019-03-03T21:43:56.842Z,12.51
2019-03-03T21:47:00.038Z,12.48
2019-03-03T21:50:03.244Z,12.42
2019-03-03T21:53:06.452Z,12.45
2019-03-03T21:56:10.448Z,12.41
2019-03-03T21:59:13.769Z,12.43
2019-03-03T22:02:17.030Z,12.48
2019-03-03T22:05:20.243Z,12.42
2019-03-03T22:08:23.535Z,12.35
2019-03-03T22:11:26.725Z,12.28
2019-03-03T22:14:29.915Z,12.21
2019-03-03T22:17:33.127Z,12.19
2019-03-03T22:20:36.296Z,12.12
2019-03-03T22:23:39.390Z,11.99
2019-03-03T22:26:42.475Z,11.95
2019-03-03T22:29:45.777Z,11.86
2019-03-03T22:32:48.991Z,11.84
2019-03-03T22:35:52.179Z,11.74
2019-03-03T22:38:55.369Z,11.69
2019-03-03T22:41:58.679Z,11.68
2019-03-03T22:45:01.887Z,11.60
2019-03-03T22:48:05.319Z,11.50
2019-03-03T22:51:08.463Z,11.41
2019-03-03T22:54:11.567Z,11.31
2019-03-03T22:57:14.727Z,11.18
2019-03-03T23:00:31.299Z,10.98
2019-03-03T23:03:40.240Z,10.82
2019-03-03T23:06:48.144Z,10.76
2019-03-03T23:12:06.020Z,10.60
2019-03-03T23:16:49.384Z,10.38
2019-03-03T23:20:07.324Z,10.23
2019-03-03T23:23:21.634Z,10.23
2019-03-03T23:26:24.754Z,10.16
2019-03-03T23:29:27.860Z,10.11
2019-03-03T23:32:31.055Z,10.02
2019-03-03T23:35:34.239Z,9.79
2019-03-03T23:38:38.263Z,9.76
2019-03-03T23:41:41.451Z,9.75
2019-03-03T23:44:44.929Z,9.69
2019-03-03T23:47:48.171Z,9.72
2019-03-03T23:50:51.363Z,9.82
2019-03-03T23:53:54.547Z,9.88
2019-03-03T23:56:57.734Z,9.95
